Time;durP1;ratioP1;P1;durP2;ratioP2;P2;SDS_P1;SDS_P2;PMS_P1;PMS_P2;Temp;Humidity;BMP_temperature;BMP_pressure;BME280_temperature;BME280_humidity;BME280_pressure;Samples;Min_cycle;Max_cycle;Signal;HPM_P1;HPM_P2
2023/06/22 00:00:56;;;;;;;7.55;4.82;;;17.80;99.90;;;;;;5088738;28;20044;-78
2023/06/22 00:03:24;;;;;;;11.85;5.28;;;17.70;99.90;;;;;;5070322;28;20269;-78
2023/06/22 00:05:50;;;;;;;15.60;6.07;;;17.70;99.90;;;;;;5070554;28;20038;-78
2023/06/22 00:08:17;;;;;;;11.70;6.18;;;17.70;99.90;;;;;;5069930;28;20055;-78
2023/06/22 00:10:44;;;;;;;8.85;5.00;;;17.70;99.90;;;;;;5069052;28;20028;-78
2023/06/22 00:13:10;;;;;;;16.20;7.30;;;17.70;99.90;;;;;;5069882;28;20057;-79
2023/06/22 00:15:38;;;;;;;14.57;6.15;;;17.70;99.90;;;;;;5070289;28;20024;-79
2023/06/22 00:18:05;;;;;;;14.23;6.28;;;17.80;99.90;;;;;;5085548;28;20042;-78
2023/06/22 00:20:32;;;;;;;13.38;7.28;;;17.70;99.90;;;;;;5069206;28;20024;-78
2023/06/22 00:22:59;;;;;;;8.45;5.72;;;17.70;99.90;;;;;;5069834;28;20021;-78
2023/06/22 00:25:25;;;;;;;18.38;7.00;;;17.70;99.90;;;;;;5068460;28;20023;-78
2023/06/22 00:27:51;;;;;;;16.23;7.20;;;17.70;99.90;;;;;;5069405;28;20124;-78
2023/06/22 00:30:18;;;;;;;18.08;8.13;;;17.60;99.90;;;;;;5068083;28;20459;-78
2023/06/22 00:32:44;;;;;;;15.75;8.90;;;17.60;99.90;;;;;;5069750;28;20103;-78
2023/06/22 00:35:12;;;;;;;16.55;9.20;;;17.60;99.90;;;;;;5085762;28;20166;-78
2023/06/22 00:37:40;;;;;;;14.95;8.48;;;17.60;99.90;;;;;;5069675;28;20033;-78
2023/06/22 00:40:07;;;;;;;11.98;7.88;;;17.60;99.90;;;;;;5068400;28;20074;-78
2023/06/22 00:42:33;;;;;;;17.98;7.75;;;17.60;99.90;;;;;;5069820;28;20021;-78
2023/06/22 00:44:59;;;;;;;14.40;7.70;;;17.60;99.90;;;;;;5069540;28;20033;-78
2023/06/22 00:47:24;;;;;;;18.67;8.80;;;17.50;99.90;;;;;;5068048;28;20302;-78
2023/06/22 00:49:53;;;;;;;17.80;9.77;;;17.50;99.90;;;;;;5069746;28;20127;-78
2023/06/22 00:52:27;;;;;;;18.75;8.82;;;17.50;99.90;;;;;;5069661;28;20255;-78
2023/06/22 00:54:53;;;;;;;20.77;9.85;;;17.50;99.90;;;;;;5068327;28;20020;-78
2023/06/22 00:57:20;;;;;;;20.88;10.27;;;17.50;99.90;;;;;;5070158;28;20059;-78
2023/06/22 00:59:47;;;;;;;14.50;9.05;;;17.40;99.90;;;;;;5088165;28;20028;-78
2023/06/22 01:02:13;;;;;;;18.05;10.05;;;17.40;99.90;;;;;;5089130;28;20024;-78
2023/06/22 01:04:40;;;;;;;26.00;12.27;;;17.40;99.90;;;;;;5087647;28;20024;-78
2023/06/22 01:07:13;;;;;;;14.40;9.15;;;17.40;99.90;;;;;;5088799;28;20016;-76
2023/06/22 01:10:04;;;;;;;19.30;9.57;;;17.40;99.90;;;;;;5087633;28;20016;-77
2023/06/22 01:12:33;;;;;;;18.00;9.27;;;17.40;99.90;;;;;;5045244;28;20036;-77
2023/06/22 01:15:10;;;;;;;16.98;10.07;;;17.30;99.90;;;;;;5069960;28;20480;-77
2023/06/22 01:17:39;;;;;;;25.27;10.88;;;17.30;99.90;;;;;;5066010;28;20056;-78
2023/06/22 01:20:08;;;;;;;13.93;9.52;;;17.30;99.90;;;;;;5074996;28;20020;-78
2023/06/22 01:23:00;;;;;;;20.02;10.57;;;17.20;99.90;;;;;;5087338;28;20028;-78
2023/06/22 01:25:48;;;;;;;19.38;10.70;;;17.20;99.90;;;;;;5087877;28;20512;-78
2023/06/22 01:28:48;;;;;;;14.10;8.73;;;17.20;99.90;;;;;;5088264;28;20063;-78
2023/06/22 01:31:18;;;;;;;19.60;10.38;;;17.20;99.90;;;;;;5071089;28;20063;-78
2023/06/22 01:33:46;;;;;;;22.73;11.88;;;17.10;99.90;;;;;;5064413;28;20017;-78
2023/06/22 01:36:14;;;;;;;25.20;11.70;;;17.10;99.90;;;;;;5065826;28;20156;-78
2023/06/22 01:38:40;;;;;;;18.98;11.07;;;17.10;99.90;;;;;;5080490;28;20348;-78
2023/06/22 01:41:06;;;;;;;25.58;12.80;;;17.10;99.90;;;;;;5088555;28;20031;-78
2023/06/22 01:43:32;;;;;;;26.58;12.48;;;17.10;99.90;;;;;;5075752;28;20025;-78
2023/06/22 01:45:59;;;;;;;26.77;12.45;;;17.10;99.90;;;;;;5067351;28;20469;-78
2023/06/22 01:48:25;;;;;;;19.65;11.82;;;17.10;99.90;;;;;;5068683;28;20079;-78
2023/06/22 01:50:53;;;;;;;22.67;11.57;;;16.80;99.90;;;;;;5067221;28;20068;-78
2023/06/22 01:53:20;;;;;;;27.48;11.88;;;17.10;99.90;;;;;;5067281;28;20027;-78
2023/06/22 01:55:46;;;;;;;20.42;11.27;;;17.10;99.90;;;;;;5061502;28;20068;-78
2023/06/22 01:58:12;;;;;;;19.83;12.05;;;17.10;99.90;;;;;;5048328;28;20080;-78
2023/06/22 02:00:40;;;;;;;19.63;11.68;;;17.10;99.90;;;;;;5048471;28;20510;-80
2023/06/22 02:03:11;;;;;;;22.65;11.15;;;17.10;99.90;;;;;;5030500;28;20036;-78
2023/06/22 02:05:42;;;;;;;20.40;10.98;;;17.10;99.90;;;;;;5048452;28;20029;-78
2023/06/22 02:08:11;;;;;;;18.25;11.45;;;17.10;99.90;;;;;;5050552;28;20512;-78
2023/06/22 02:10:41;;;;;;;17.65;10.18;;;17.10;99.90;;;;;;5065752;28;20496;-78
2023/06/22 02:13:08;;;;;;;22.02;10.40;;;17.10;99.90;;;;;;5030493;28;20138;-77
2023/06/22 02:15:34;;;;;;;16.45;10.30;;;17.00;99.90;;;;;;5030441;28;20052;-78
2023/06/22 02:18:00;;;;;;;17.48;10.43;;;17.00;99.90;;;;;;5030377;28;20561;-77
2023/06/22 02:20:26;;;;;;;19.52;10.77;;;17.00;99.90;;;;;;5030141;28;20060;-77
2023/06/22 02:22:52;;;;;;;19.17;10.25;;;17.00;99.90;;;;;;5030288;28;20041;-79
2023/06/22 02:25:19;;;;;;;18.27;9.73;;;17.00;99.90;;;;;;5030422;28;20030;-78
2023/06/22 02:27:45;;;;;;;19.70;10.23;;;17.00;99.90;;;;;;5048048;28;20028;-78
2023/06/22 02:30:12;;;;;;;17.88;10.27;;;16.90;99.90;;;;;;5048416;28;20017;-78
2023/06/22 02:32:42;;;;;;;18.23;10.82;;;17.00;99.90;;;;;;5049316;28;20074;-77
2023/06/22 02:35:09;;;;;;;21.98;10.65;;;16.90;99.90;;;;;;5034006;28;20044;-78
2023/06/22 02:37:41;;;;;;;21.30;11.15;;;16.90;99.90;;;;;;5063293;28;20278;-78
2023/06/22 02:40:08;;;;;;;20.88;11.35;;;16.80;99.90;;;;;;5071787;28;20017;-78
2023/06/22 02:42:37;;;;;;;20.80;9.93;;;16.80;99.90;;;;;;5071763;28;20031;-79
2023/06/22 02:45:03;;;;;;;27.40;10.35;;;16.80;99.90;;;;;;5057113;28;20029;-78
2023/06/22 02:47:29;;;;;;;19.35;9.73;;;16.80;99.90;;;;;;5051795;28;20033;-78
2023/06/22 02:49:55;;;;;;;21.23;9.98;;;16.80;99.90;;;;;;5051739;28;20029;-77
2023/06/22 02:52:20;;;;;;;15.73;10.18;;;16.70;99.90;;;;;;5033563;28;20052;-79
2023/06/22 02:54:46;;;;;;;17.38;9.82;;;16.70;99.90;;;;;;5063173;28;20027;-77
2023/06/22 02:57:13;;;;;;;17.38;9.23;;;16.70;99.90;;;;;;5070688;28;20048;-78
2023/06/22 02:59:42;;;;;;;15.15;10.15;;;16.70;99.90;;;;;;5053435;28;20094;-78
2023/06/22 03:02:09;;;;;;;22.13;11.23;;;16.70;99.90;;;;;;5072134;28;20035;-78
2023/06/22 03:04:37;;;;;;;28.30;11.18;;;16.70;99.90;;;;;;5053661;28;20046;-78
2023/06/22 03:07:03;;;;;;;20.98;10.10;;;16.60;99.90;;;;;;5053500;28;20098;-78
2023/06/22 03:09:29;;;;;;;15.10;9.93;;;16.50;99.90;;;;;;5052833;28;20028;-80
2023/06/22 03:11:55;;;;;;;20.77;11.35;;;16.40;99.90;;;;;;5053000;28;20485;-78
2023/06/22 03:14:21;;;;;;;15.50;9.23;;;16.40;99.90;;;;;;5052884;28;20119;-78
2023/06/22 03:16:46;;;;;;;18.80;9.05;;;16.50;99.90;;;;;;5069195;28;20465;-78
2023/06/22 03:19:13;;;;;;;21.08;10.00;;;16.40;99.90;;;;;;5069356;28;20114;-79
2023/06/22 03:21:39;;;;;;;19.15;8.43;;;16.50;99.90;;;;;;5051530;28;20017;-78
2023/06/22 03:24:06;;;;;;;14.93;8.60;;;16.40;99.90;;;;;;5051503;28;20081;-78
2023/06/22 03:26:32;;;;;;;11.63;8.32;;;16.30;99.90;;;;;;5069542;28;20075;-79
2023/06/22 03:28:58;;;;;;;20.60;9.30;;;16.30;99.90;;;;;;5051500;28;20465;-78
2023/06/22 03:31:23;;;;;;;17.52;10.02;;;16.40;99.90;;;;;;5071041;28;20214;-78
2023/06/22 03:33:50;;;;;;;18.30;10.95;;;16.30;99.90;;;;;;5070882;28;20043;-77
2023/06/22 03:36:19;;;;;;;17.60;8.60;;;16.30;99.90;;;;;;5070916;28;20560;-78
2023/06/22 03:38:45;;;;;;;;;;;16.30;99.90;;;;;;5071310;28;20066;-78
2023/06/22 03:41:11;;;;;;;15.05;9.52;;;16.20;99.90;;;;;;5070895;28;19912;-78
2023/06/22 03:43:37;;;;;;;13.40;9.30;;;16.20;99.90;;;;;;5069909;28;20024;-78
2023/06/22 03:46:03;;;;;;;15.25;7.95;;;16.20;99.90;;;;;;5052554;28;20039;-78
2023/06/22 03:48:28;;;;;;;13.75;9.45;;;16.20;99.90;;;;;;5070553;28;20027;-78
2023/06/22 03:50:54;;;;;;;21.90;10.32;;;17.70;99.90;;;;;;5070444;28;20171;-78
2023/06/22 03:53:20;;;;;;;28.30;10.73;;;16.20;99.90;;;;;;5070525;28;20036;-78
2023/06/22 03:55:52;;;;;;;21.25;9.90;;;16.20;99.90;;;;;;5070522;28;20470;-78
2023/06/22 03:58:19;;;;;;;18.05;9.05;;;16.20;99.90;;;;;;5070181;28;20497;-78
2023/06/22 04:00:52;;;;;;;16.52;9.82;;;16.30;99.90;;;;;;5070383;28;20052;-78
2023/06/22 04:03:18;;;;;;;15.23;9.02;;;16.30;99.90;;;;;;5070511;28;20028;-78
2023/06/22 04:05:45;;;;;;;16.92;9.70;;;16.30;99.90;;;;;;5052120;28;20458;-77
2023/06/22 04:08:11;;;;;;;18.73;9.98;;;16.20;99.90;;;;;;5052155;28;20025;-77
2023/06/22 04:10:37;;;;;;;18.33;9.95;;;16.30;99.90;;;;;;5052011;28;20070;-77
2023/06/22 04:13:03;;;;;;;17.70;10.23;;;16.30;99.90;;;;;;5051945;28;20032;-79
2023/06/22 04:15:28;;;;;;;21.85;11.15;;;16.40;99.90;;;;;;5070068;28;20038;-78
2023/06/22 04:17:55;;;;;;;19.30;10.30;;;16.40;99.90;;;;;;5069976;28;20504;-78
2023/06/22 04:20:21;;;;;;;20.92;10.18;;;16.40;99.90;;;;;;5070194;28;20055;-78
2023/06/22 04:22:46;;;;;;;17.60;10.70;;;16.40;99.90;;;;;;5051825;28;20056;-78
2023/06/22 04:25:12;;;;;;;18.15;9.95;;;16.50;99.90;;;;;;5069900;28;20025;-78
2023/06/22 04:27:40;;;;;;;22.35;9.90;;;16.60;99.90;;;;;;5069526;28;20035;-80
2023/06/22 04:30:07;;;;;;;22.70;9.98;;;16.70;99.90;;;;;;5069571;28;20468;-78
2023/06/22 04:32:35;;;;;;;18.27;9.70;;;16.70;99.90;;;;;;5069794;28;20434;-78
2023/06/22 04:35:04;;;;;;;26.77;11.63;;;16.80;99.90;;;;;;5051991;28;20016;-78
2023/06/22 04:37:30;;;;;;;18.33;9.30;;;16.90;99.90;;;;;;5051984;28;20117;-78
2023/06/22 04:39:56;;;;;;;21.65;9.95;;;16.90;99.90;;;;;;5069660;28;20025;-77
2023/06/22 04:42:22;;;;;;;20.90;11.10;;;17.00;99.90;;;;;;5069199;28;20025;-79
2023/06/22 04:44:48;;;;;;;21.48;10.35;;;17.10;99.90;;;;;;5069708;28;20055;-78
2023/06/22 04:47:13;;;;;;;17.52;11.30;;;17.20;99.90;;;;;;5069452;28;20044;-78
2023/06/22 04:49:40;;;;;;;19.13;11.52;;;17.30;99.90;;;;;;5051593;28;20051;-78
2023/06/22 04:52:10;;;;;;;25.23;11.30;;;17.40;99.90;;;;;;5069664;28;20036;-78
2023/06/22 04:54:37;;;;;;;19.60;10.63;;;17.60;99.90;;;;;;5068980;28;20029;-78
2023/06/22 04:57:09;;;;;;;20.40;8.70;;;17.80;99.90;;;;;;5068450;28;20066;-78
2023/06/22 04:59:38;;;;;;;19.00;8.75;;;17.90;99.90;;;;;;5069420;28;20103;-77
2023/06/22 05:02:05;;;;;;;20.73;8.85;;;18.00;99.90;;;;;;5069340;28;20017;-78
2023/06/22 05:04:31;;;;;;;16.42;10.05;;;18.10;99.90;;;;;;5051345;28;20033;-78
2023/06/22 05:06:57;;;;;;;25.60;10.00;;;18.10;99.90;;;;;;5069271;28;20035;-78
2023/06/22 05:09:24;;;;;;;14.75;9.98;;;18.20;99.90;;;;;;5051241;28;20033;-78
2023/06/22 05:11:51;;;;;;;21.85;10.38;;;18.20;99.90;;;;;;5068892;28;20107;-79
2023/06/22 05:14:17;;;;;;;18.63;11.27;;;18.30;99.90;;;;;;5068840;28;20032;-79
2023/06/22 05:16:43;;;;;;;19.27;11.07;;;18.40;99.90;;;;;;5069236;28;20024;-77
2023/06/22 05:19:09;;;;;;;18.75;9.90;;;18.50;99.90;;;;;;5069413;28;20102;-78
2023/06/22 05:21:35;;;;;;;18.42;11.07;;;18.80;99.90;;;;;;5069168;28;20058;-78
2023/06/22 05:24:02;;;;;;;20.27;12.80;;;18.90;99.90;;;;;;5050994;28;20032;-78
2023/06/22 05:26:29;;;;;;;19.15;10.77;;;19.00;99.90;;;;;;5051118;28;20399;-80
2023/06/22 05:28:55;;;;;;;19.65;11.68;;;17.80;99.90;;;;;;5051296;28;20218;-79
2023/06/22 05:31:21;;;;;;;23.90;13.52;;;19.40;99.90;;;;;;5069328;28;20658;-78
2023/06/22 05:33:48;;;;;;;24.58;14.15;;;19.40;99.90;;;;;;5069052;28;20025;-78
2023/06/22 05:36:14;;;;;;;18.58;11.82;;;;;;;;;;5069240;28;20024;-77
2023/06/22 05:38:40;;;;;;;23.95;12.57;;;19.50;99.90;;;;;;5041283;28;20401;-80
2023/06/22 05:41:06;;;;;;;23.52;13.10;;;19.60;99.90;;;;;;5033270;28;20048;-81
2023/06/22 05:43:32;;;;;;;19.33;12.95;;;19.60;99.90;;;;;;5030193;28;20497;-78
2023/06/22 05:45:58;;;;;;;21.58;11.40;;;20.00;99.90;;;;;;5046894;28;20031;-78
2023/06/22 05:48:24;;;;;;;16.15;10.35;;;20.30;99.90;;;;;;5068217;28;20028;-79
2023/06/22 05:50:49;;;;;;;15.80;8.60;;;20.60;99.90;;;;;;5041177;28;20022;-80
2023/06/22 05:53:15;;;;;;;13.88;7.93;;;20.90;99.90;;;;;;5041709;28;20500;-85
2023/06/22 05:55:42;;;;;;;10.80;6.22;;;20.80;99.90;;;;;;5063138;28;20040;-81
2023/06/22 05:58:08;;;;;;;12.48;7.28;;;20.60;99.90;;;;;;5106413;28;20023;-81
2023/06/22 06:00:33;;;;;;;10.90;7.38;;;20.30;99.90;;;;;;5092360;28;20024;-79
2023/06/22 06:03:03;;;;;;;12.55;7.55;;;20.30;99.90;;;;;;5086865;28;20035;-79
2023/06/22 06:05:32;;;;;;;15.18;7.75;;;20.30;99.90;;;;;;5087061;28;20027;-78
2023/06/22 06:07:59;;;;;;;13.82;7.63;;;20.50;99.90;;;;;;5090135;28;20164;-79
2023/06/22 06:10:25;;;;;;;15.27;8.30;;;20.50;99.90;;;;;;5090577;28;20528;-78
2023/06/22 06:12:51;;;;;;;17.20;9.55;;;20.50;99.90;;;;;;5090481;28;20141;-79
2023/06/22 06:15:16;;;;;;;15.60;9.95;;;20.20;99.90;;;;;;5091035;28;20475;-78
2023/06/22 06:17:50;;;;;;;13.13;9.98;;;20.20;99.90;;;;;;5090842;28;20507;-79
2023/06/22 06:20:19;;;;;;;14.05;9.77;;;20.30;99.90;;;;;;5090704;28;20127;-79
2023/06/22 06:22:45;;;;;;;15.98;10.48;;;20.30;99.90;;;;;;5092721;28;20121;-79
2023/06/22 06:25:15;;;;;;;18.83;10.23;;;20.00;99.90;;;;;;5089657;28;20028;-78
2023/06/22 06:27:42;;;;;;;21.25;9.23;;;20.20;99.90;;;;;;5090844;28;20155;-80
2023/06/22 06:30:08;;;;;;;20.92;10.27;;;20.20;99.90;;;;;;5090223;28;20247;-80
2023/06/22 06:32:34;;;;;;;19.48;10.00;;;20.20;99.90;;;;;;5091703;28;20027;-80
2023/06/22 06:34:59;;;;;;;14.50;9.68;;;20.20;99.90;;;;;;5070789;28;20026;-79
2023/06/22 06:37:25;;;;;;;18.13;10.25;;;20.20;99.90;;;;;;5069975;28;20068;-81
2023/06/22 06:39:50;;;;;;;20.67;9.75;;;20.20;99.90;;;;;;5071590;28;20025;-79
2023/06/22 06:42:16;;;;;;;17.52;11.13;;;20.30;99.90;;;;;;5070268;28;20028;-80
2023/06/22 06:44:42;;;;;;;14.75;10.07;;;20.30;99.90;;;;;;5070370;28;20081;-79
2023/06/22 06:47:07;;;;;;;15.95;11.10;;;20.40;99.90;;;;;;5071972;28;20031;-80
2023/06/22 06:49:33;;;;;;;16.27;10.02;;;20.60;99.90;;;;;;5071499;28;20024;-79
2023/06/22 06:51:59;;;;;;;18.38;11.05;;;;;;;;;;5071517;28;20036;-81
2023/06/22 06:54:25;;;;;;;14.88;10.48;;;20.90;99.90;;;;;;5070509;28;20389;-83
2023/06/22 06:56:51;;;;;;;16.52;10.98;;;21.00;99.90;;;;;;5054635;28;20057;-80
2023/06/22 06:59:16;;;;;;;16.55;9.90;;;21.20;99.90;;;;;;5033935;28;20029;-80
2023/06/22 07:01:44;;;;;;;17.17;9.73;;;21.30;99.90;;;;;;5032424;28;20032;-80
2023/06/22 07:04:10;;;;;;;20.00;10.25;;;21.30;99.90;;;;;;5050619;28;20036;-79
2023/06/22 07:06:35;;;;;;;16.58;10.38;;;21.60;99.90;;;;;;5053180;28;20031;-80
2023/06/22 07:09:01;;;;;;;16.27;9.27;;;21.80;99.90;;;;;;5070844;28;20028;-79
2023/06/22 07:11:27;;;;;;;13.45;9.90;;;22.50;99.90;;;;;;5070328;28;20021;-80
2023/06/22 07:13:52;;;;;;;16.42;9.45;;;23.30;99.90;;;;;;5052396;28;20025;-79
2023/06/22 07:16:18;;;;;;;16.73;9.75;;;24.00;99.90;;;;;;5032890;28;20035;-79
2023/06/22 07:18:44;;;;;;;16.45;9.45;;;24.20;99.90;;;;;;5031592;28;20198;-80
2023/06/22 07:21:09;;;;;;;16.35;10.45;;;24.10;99.90;;;;;;5050307;28;20326;-80
2023/06/22 07:23:35;;;;;;;14.98;8.77;;;22.90;99.90;;;;;;5033800;28;20110;-81
2023/06/22 07:26:06;;;;;;;16.55;9.80;;;22.90;99.90;;;;;;5040916;28;20056;-80
2023/06/22 07:28:36;;;;;;;13.05;8.07;;;22.40;99.90;;;;;;5049552;28;20055;-79
2023/06/22 07:31:03;;;;;;;12.00;8.52;;;22.10;99.90;;;;;;5043238;28;20042;-80
2023/06/22 07:33:30;;;;;;;17.98;8.88;;;;;;;;;;5043878;28;20021;-81
2023/06/22 07:35:55;;;;;;;14.68;8.82;;;22.00;99.90;;;;;;5043108;28;20040;-79
2023/06/22 07:38:21;;;;;;;14.93;8.50;;;22.20;99.90;;;;;;5042817;28;20036;-79
2023/06/22 07:40:47;;;;;;;13.30;9.40;;;22.50;99.90;;;;;;5043046;28;20017;-80
2023/06/22 07:43:13;;;;;;;13.73;8.23;;;;;;;;;;5061138;28;20112;-83
2023/06/22 07:45:40;;;;;;;15.70;8.82;;;22.60;99.90;;;;;;5061916;28;20080;-85
2023/06/22 07:48:06;;;;;;;16.85;9.88;;;22.80;99.90;;;;;;5035098;28;20349;-83
2023/06/22 07:50:32;;;;;;;12.18;9.02;;;22.80;99.90;;;;;;5032516;28;20040;-82
2023/06/22 07:52:58;;;;;;;18.90;8.40;;;23.00;99.90;;;;;;5033210;28;20021;-77
2023/06/22 07:55:23;;;;;;;14.20;7.65;;;22.90;99.90;;;;;;5037351;28;20051;-82
2023/06/22 07:57:51;;;;;;;14.85;9.90;;;;;;;;;;5068635;28;20067;-84
2023/06/22 08:00:17;;;;;;;16.90;9.73;;;23.30;99.90;;;;;;5068627;28;20508;-79
2023/06/22 08:02:45;;;;;;;17.52;8.93;;;23.30;99.90;;;;;;5069359;28;20028;-83
2023/06/22 08:05:11;;;;;;;16.52;9.25;;;;;;;;;;5069071;28;20024;-80
2023/06/22 08:07:38;;;;;;;16.33;8.35;;;24.40;99.90;;;;;;5068869;28;20054;-79
2023/06/22 08:10:13;;;;;;;19.17;9.15;;;24.30;99.90;;;;;;5074130;28;20028;-81
2023/06/22 08:12:39;;;;;;;18.27;9.02;;;24.70;99.90;;;;;;5079873;28;20053;-81
2023/06/22 08:15:07;;;;;;;15.55;9.15;;;24.70;99.90;;;;;;5082175;28;20024;-80
2023/06/22 08:17:33;;;;;;;23.23;9.57;;;24.50;99.90;;;;;;5080536;28;20024;-85
2023/06/22 08:19:58;;;;;;;19.02;10.38;;;24.30;99.90;;;;;;5082445;28;20027;-85
2023/06/22 08:22:24;;;;;;;14.40;8.13;;;24.00;99.90;;;;;;5081061;28;20023;-80
2023/06/22 08:24:50;;;;;;;16.52;9.93;;;23.80;99.90;;;;;;5067638;28;20170;-81
2023/06/22 08:27:16;;;;;;;20.75;9.57;;;23.80;99.90;;;;;;5066462;28;20047;-81
2023/06/22 08:29:42;;;;;;;16.88;8.80;;;24.00;99.90;;;;;;5067247;28;20024;-84
2023/06/22 08:32:12;;;;;;;14.40;9.20;;;24.10;99.90;;;;;;5067329;28;20029;-80
2023/06/22 08:34:42;;;;;;;18.02;9.20;;;;;;;;;;5067342;28;20119;-77
2023/06/22 08:37:08;;;;;;;24.83;9.88;;;24.70;99.90;;;;;;5067417;28;20033;-81
2023/06/22 08:39:34;;;;;;;16.70;8.52;;;24.70;99.90;;;;;;5067791;28;20029;-79
2023/06/22 08:42:00;;;;;;;9.02;7.00;;;24.80;99.90;;;;;;5067972;28;20111;-79
2023/06/22 08:44:25;;;;;;;11.63;7.28;;;25.10;99.90;;;;;;5078314;28;20029;-78
2023/06/22 08:46:51;;;;;;;16.45;6.57;;;25.40;99.90;;;;;;5079729;28;20048;-76
2023/06/22 08:49:17;;;;;;;17.08;6.25;;;25.70;99.90;;;;;;5080603;28;20035;-77
2023/06/22 08:51:44;;;;;;;15.60;6.00;;;25.90;99.90;;;;;;5078073;28;20024;-76
2023/06/22 08:54:10;;;;;;;13.88;6.60;;;25.80;99.90;;;;;;5079015;28;20039;-77
2023/06/22 08:56:36;;;;;;;16.83;6.80;;;25.80;99.90;;;;;;5077536;28;20539;-81
2023/06/22 08:59:01;;;;;;;15.57;6.53;;;25.60;99.90;;;;;;5079413;28;20056;-77
2023/06/22 09:01:28;;;;;;;15.15;5.72;;;25.40;99.90;;;;;;5081096;28;20056;-76
2023/06/22 09:03:55;;;;;;;16.05;7.88;;;25.30;99.90;;;;;;5089440;28;20071;-78
2023/06/22 09:06:21;;;;;;;9.90;6.53;;;25.00;99.90;;;;;;5088184;28;20418;-76
2023/06/22 09:08:48;;;;;;;10.60;5.97;;;;;;;;;;5085423;28;20077;-80
2023/06/22 09:11:14;;;;;;;10.20;5.95;;;;;;;;;;5085125;28;20020;-77
2023/06/22 09:13:40;;;;;;;15.82;6.03;;;;;;;;;;5086079;28;20031;-77
2023/06/22 09:16:06;;;;;;;11.63;6.53;;;24.50;99.90;;;;;;5085444;28;20431;-81
2023/06/22 09:18:33;;;;;;;9.77;6.15;;;24.70;99.90;;;;;;5085458;28;20405;-76
2023/06/22 09:20:59;;;;;;;17.77;7.05;;;24.70;99.90;;;;;;5085385;28;20024;-78
2023/06/22 09:23:24;;;;;;;14.45;6.10;;;24.80;99.90;;;;;;5086704;28;20081;-78
2023/06/22 09:25:50;;;;;;;11.05;5.97;;;;;;;;;;5085596;28;20028;-78
2023/06/22 09:28:17;;;;;;;9.63;6.43;;;;;;;;;;5088119;28;20056;-79
2023/06/22 09:30:46;;;;;;;7.85;5.38;;;;;;;;;;5086712;28;20062;-78
2023/06/22 09:33:12;;;;;;;9.18;5.50;;;;;;;;;;5082109;28;20081;-79
2023/06/22 09:35:37;;;;;;;10.65;6.15;;;25.90;99.90;;;;;;5068295;28;20028;-79
2023/06/22 09:38:03;;;;;;;8.52;6.05;;;26.20;99.90;;;;;;5067550;28;20097;-77
2023/06/22 09:40:29;;;;;;;9.27;5.97;;;26.50;99.90;;;;;;5066376;28;20036;-81
2023/06/22 09:42:54;;;;;;;9.77;5.75;;;26.40;99.90;;;;;;5070413;28;20107;-79
2023/06/22 09:45:20;;;;;;;14.77;5.57;;;26.20;99.90;;;;;;5071819;28;20028;-78
2023/06/22 09:47:46;;;;;;;12.40;5.18;;;;;;;;;;5072149;28;20036;-83
2023/06/22 09:50:11;;;;;;;9.10;5.60;;;25.50;99.90;;;;;;5071452;28;20492;-80
2023/06/22 09:52:37;;;;;;;5.30;4.13;;;25.40;99.90;;;;;;5072041;28;20182;-82
2023/06/22 09:55:03;;;;;;;13.02;5.32;;;;;;;;;;5070601;28;20078;-77
2023/06/22 09:57:30;;;;;;;11.07;5.93;;;;;;;;;;5051912;28;20041;-78
2023/06/22 09:59:56;;;;;;;13.57;5.10;;;;;;;;;;5052775;28;20021;-79
2023/06/22 10:02:22;;;;;;;7.78;5.43;;;25.20;99.90;;;;;;5035317;28;20024;-80
2023/06/22 10:04:48;;;;;;;8.77;5.93;;;;;;;;;;5034517;28;20055;-80
2023/06/22 10:07:14;;;;;;;8.45;4.47;;;25.30;99.90;;;;;;5034813;28;20430;-80
2023/06/22 10:09:40;;;;;;;9.73;5.97;;;;;;;;;;5052005;28;20032;-78
2023/06/22 10:12:06;;;;;;;14.40;5.18;;;25.20;99.90;;;;;;5051775;28;20489;-78
2023/06/22 10:14:32;;;;;;;6.22;4.88;;;;;;;;;;5034504;28;20029;-77
2023/06/22 10:16:58;;;;;;;8.57;4.82;;;;;;;;;;5033528;28;20025;-80
2023/06/22 10:19:24;;;;;;;14.90;6.43;;;25.20;99.90;;;;;;5033730;28;20144;-81
2023/06/22 10:21:49;;;;;;;11.02;5.93;;;25.40;99.90;;;;;;5034280;28;20108;-78
2023/06/22 10:24:15;;;;;;;10.88;6.40;;;25.30;99.90;;;;;;5047777;28;20326;-79
2023/06/22 10:26:41;;;;;;;10.15;5.28;;;25.20;99.90;;;;;;5051502;28;20536;-78
2023/06/22 10:29:06;;;;;;;11.80;5.43;;;25.20;99.90;;;;;;5050473;28;20032;-76
2023/06/22 10:31:32;;;;;;;13.57;6.78;;;25.20;99.90;;;;;;5071359;28;20030;-76
2023/06/22 10:33:57;;;;;;;9.68;5.40;;;25.20;99.90;;;;;;5059985;28;20025;-77
2023/06/22 10:36:23;;;;;;;11.93;5.57;;;25.40;99.90;;;;;;5033155;28;20029;-79
2023/06/22 10:38:49;;;;;;;10.38;5.88;;;25.30;99.90;;;;;;5033186;28;20091;-78
2023/06/22 10:41:15;;;;;;;7.28;4.95;;;25.20;99.90;;;;;;5033204;28;20063;-77
2023/06/22 10:43:41;;;;;;;8.27;4.95;;;25.30;99.90;;;;;;5051468;28;20048;-78
2023/06/22 10:46:07;;;;;;;11.18;5.05;;;25.20;99.90;;;;;;5033251;28;20087;-78
2023/06/22 10:48:33;;;;;;;11.43;5.30;;;25.30;99.90;;;;;;5033257;28;20310;-77
2023/06/22 10:50:59;;;;;;;6.45;4.25;;;25.40;99.90;;;;;;5032972;28;20280;-77
2023/06/22 10:53:24;;;;;;;14.45;6.75;;;25.40;99.90;;;;;;5031647;28;20044;-77
2023/06/22 10:55:50;;;;;;;12.20;6.30;;;25.30;99.90;;;;;;5044985;28;20053;-77
2023/06/22 10:58:18;;;;;;;10.32;6.00;;;25.40;99.90;;;;;;5068878;28;20128;-79
2023/06/22 11:00:44;;;;;;;12.25;5.63;;;25.60;99.90;;;;;;5071268;28;20035;-77
2023/06/22 11:03:10;;;;;;;7.50;4.28;;;25.70;99.90;;;;;;5069643;28;20473;-80
2023/06/22 11:05:35;;;;;;;8.52;4.72;;;25.90;99.90;;;;;;5071210;28;20222;-79
2023/06/22 11:08:01;;;;;;;8.63;5.55;;;26.10;99.90;;;;;;5080298;28;20039;-79
2023/06/22 11:10:27;;;;;;;7.70;4.47;;;26.10;99.90;;;;;;5089501;28;20630;-80
2023/06/22 11:12:53;;;;;;;6.47;4.05;;;25.90;99.90;;;;;;5090449;28;20032;-79
2023/06/22 11:15:19;;;;;;;11.15;5.65;;;25.90;99.90;;;;;;5088734;28;20020;-78
2023/06/22 11:17:44;;;;;;;7.40;5.10;;;26.10;99.90;;;;;;5070625;28;20401;-81
2023/06/22 11:20:11;;;;;;;9.05;4.05;;;26.30;99.90;;;;;;5069365;28;20508;-79
2023/06/22 11:22:40;;;;;;;9.88;4.88;;;26.20;99.90;;;;;;5069492;28;20036;-79
2023/06/22 11:25:07;;;;;;;6.95;4.13;;;25.80;99.90;;;;;;5070550;28;20218;-76
2023/06/22 11:27:33;;;;;;;6.35;4.18;;;25.70;99.90;;;;;;5090084;28;20389;-77
2023/06/22 11:29:59;;;;;;;13.45;5.05;;;26.10;99.90;;;;;;5088966;28;20020;-78
2023/06/22 11:32:24;;;;;;;6.15;4.30;;;26.20;99.90;;;;;;5089451;28;20028;-77
2023/06/22 11:34:50;;;;;;;8.23;4.38;;;26.60;99.90;;;;;;5072014;28;20036;-77
2023/06/22 11:37:16;;;;;;;10.30;5.15;;;27.00;99.90;;;;;;5068865;28;20040;-77
2023/06/22 11:39:42;;;;;;;8.55;4.32;;;27.40;99.90;;;;;;5070420;28;20039;-80
2023/06/22 11:42:11;;;;;;;12.60;5.00;;;27.80;99.90;;;;;;5068610;28;20082;-78
2023/06/22 11:44:37;;;;;;;9.27;3.97;;;28.50;99.90;;;;;;5068834;28;20040;-77
2023/06/22 11:47:04;;;;;;;10.57;4.90;;;28.70;99.90;;;;;;5068569;28;20358;-79
2023/06/22 11:49:30;;;;;;;13.55;5.20;;;28.30;99.90;;;;;;5068399;28;20036;-80
2023/06/22 11:51:56;;;;;;;14.32;6.40;;;;;;;;;;5068609;28;20032;-79
2023/06/22 11:54:22;;;;;;;10.85;6.13;;;26.90;99.90;;;;;;5069874;28;20036;-80
2023/06/22 11:56:47;;;;;;;10.65;5.70;;;26.90;99.90;;;;;;5053823;28;20044;-79
2023/06/22 11:59:13;;;;;;;9.85;6.13;;;26.70;99.90;;;;;;5052949;28;20079;-80
2023/06/22 12:01:39;;;;;;;11.43;6.65;;;26.60;99.90;;;;;;5043094;28;20367;-78
2023/06/22 12:04:05;;;;;;;10.68;6.50;;;26.40;99.90;;;;;;5060757;28;20037;-80
2023/06/22 12:06:38;;;;;;;10.23;6.47;;;26.20;99.90;;;;;;5042141;28;20017;-79
2023/06/22 12:09:04;;;;;;;11.90;6.88;;;26.30;99.90;;;;;;5043125;28;20028;-78
2023/06/22 12:11:30;;;;;;;9.60;5.45;;;26.40;99.90;;;;;;5042344;28;20276;-79
2023/06/22 12:13:56;;;;;;;14.82;5.70;;;26.50;99.90;;;;;;5042711;28;20048;-79
2023/06/22 12:16:22;;;;;;;9.43;5.30;;;26.50;99.90;;;;;;5041886;28;20344;-77
2023/06/22 12:18:48;;;;;;;7.18;5.60;;;26.40;99.90;;;;;;5060600;28;20099;-77
2023/06/22 12:21:13;;;;;;;7.55;4.90;;;26.10;99.90;;;;;;5060618;28;20036;-79
2023/06/22 12:23:39;;;;;;;14.65;5.57;;;26.10;99.90;;;;;;5055588;28;20102;-78
2023/06/22 12:26:05;;;;;;;8.98;5.18;;;26.10;99.90;;;;;;5048405;28;20032;-78
2023/06/22 12:28:30;;;;;;;10.43;5.07;;;25.90;99.90;;;;;;5031209;28;20068;-76
2023/06/22 12:30:56;;;;;;;8.43;4.70;;;25.80;99.90;;;;;;5030800;28;20505;-77
2023/06/22 12:33:21;;;;;;;16.70;5.45;;;25.70;99.90;;;;;;5049790;28;20488;-78
2023/06/22 12:35:48;;;;;;;13.65;4.97;;;25.70;99.90;;;;;;5046107;28;20357;-78
2023/06/22 12:38:14;;;;;;;7.55;4.45;;;25.70;99.90;;;;;;5050628;28;20043;-80
2023/06/22 12:40:40;;;;;;;7.90;4.72;;;25.80;99.90;;;;;;5068806;28;20021;-78